Time;durP1;ratioP1;P1;durP2;ratioP2;P2;SDS_P1;SDS_P2;PMS_P1;PMS_P2;Temp;Humidity;BMP_temperature;BMP_pressure;BME280_temperature;BME280_humidity;BME280_pressure;Samples;Min_cycle;Max_cycle;Signal;HPM_P1;HPM_P2
2021/01/09 00:03:35;;;;;;;3.47;2.60;;;20.40;28.10;;;;;;8324822;28;20037;-61
2021/01/09 00:07:36;;;;;;;3.73;2.90;;;20.40;28.10;;;;;;8329183;28;20077;-61
2021/01/09 00:11:37;;;;;;;4.28;2.78;;;20.40;28.10;;;;;;8312373;28;20038;-62
2021/01/09 00:15:37;;;;;;;3.73;3.07;;;20.40;28.10;;;;;;8312221;28;20087;-61
2021/01/09 00:19:39;;;;;;;3.53;2.70;;;20.40;28.10;;;;;;8324413;28;20049;-61
2021/01/09 00:23:40;;;;;;;3.58;3.15;;;20.30;28.10;;;;;;8324030;28;20037;-60
2021/01/09 00:27:40;;;;;;;4.80;3.07;;;20.40;28.20;;;;;;8327826;28;20481;-59
2021/01/09 00:31:41;;;;;;;3.13;2.47;;;20.30;28.10;;;;;;8343825;28;20243;-61
2021/01/09 00:35:41;;;;;;;3.17;2.87;;;20.30;28.00;;;;;;8352127;28;20374;-61
2021/01/09 00:39:45;;;;;;;4.37;2.80;;;20.30;28.00;;;;;;8335621;28;20041;-61
2021/01/09 00:43:46;;;;;;;3.67;2.50;;;20.30;28.10;;;;;;8341227;28;20120;-61
2021/01/09 00:47:46;;;;;;;3.87;2.60;;;20.30;28.10;;;;;;8350944;28;20036;-60
2021/01/09 00:51:47;;;;;;;2.90;2.47;;;20.30;28.10;;;;;;8360819;28;20057;-61
2021/01/09 00:55:47;;;;;;;3.33;2.60;;;20.20;28.00;;;;;;8343507;28;20021;-61
2021/01/09 00:59:50;;;;;;;3.43;2.50;;;20.20;28.10;;;;;;8333338;28;20061;-61
2021/01/09 01:03:51;;;;;;;4.18;2.47;;;20.20;28.00;;;;;;8330358;28;20095;-61
2021/01/09 01:07:51;;;;;;;3.87;2.80;;;20.20;28.00;;;;;;8330364;28;20535;-60
2021/01/09 01:11:52;;;;;;;3.43;2.53;;;20.20;28.00;;;;;;8328332;28;20041;-61
2021/01/09 01:15:52;;;;;;;3.93;3.03;;;20.20;28.10;;;;;;8343045;28;20482;-61
2021/01/09 01:19:53;;;;;;;3.37;2.57;;;20.10;28.00;;;;;;8346108;28;20037;-60
2021/01/09 01:23:53;;;;;;;3.90;2.70;;;20.10;28.00;;;;;;8328122;28;20124;-59
2021/01/09 01:27:54;;;;;;;3.70;2.80;;;20.10;28.00;;;;;;8329669;28;20041;-60
2021/01/09 01:31:58;;;;;;;4.27;3.13;;;20.10;28.00;;;;;;8329641;28;20389;-60
2021/01/09 01:35:58;;;;;;;4.20;2.67;;;20.10;28.00;;;;;;8332085;28;20037;-61
2021/01/09 01:39:59;;;;;;;3.00;2.35;;;20.10;28.00;;;;;;8329282;28;20050;-60
2021/01/09 01:43:59;;;;;;;4.53;2.57;;;20.10;28.00;;;;;;8351963;28;20426;-59
2021/01/09 01:48:00;;;;;;;3.33;2.70;;;20.10;28.00;;;;;;8360805;28;20083;-61
2021/01/09 01:52:00;;;;;;;2.80;2.13;;;20.10;28.00;;;;;;8350197;28;20042;-60
2021/01/09 01:56:02;;;;;;;2.90;2.50;;;20.10;28.00;;;;;;8330949;28;20490;-61
2021/01/09 02:00:04;;;;;;;3.88;2.70;;;20.00;27.90;;;;;;8327097;28;20095;-61
2021/01/09 02:04:07;;;;;;;4.20;2.50;;;20.00;28.00;;;;;;8328024;28;20103;-61
2021/01/09 02:08:12;;;;;;;3.38;2.55;;;20.00;27.90;;;;;;8328359;28;20083;-61
2021/01/09 02:12:18;;;;;;;3.60;2.97;;;20.00;27.90;;;;;;8331114;28;20386;-59
2021/01/09 02:16:19;;;;;;;2.45;2.25;;;20.00;27.90;;;;;;8344706;28;20049;-59
2021/01/09 02:20:22;;;;;;;2.58;2.38;;;20.00;28.00;;;;;;8334302;28;20041;-59
2021/01/09 02:24:22;;;;;;;3.50;2.50;;;19.90;27.90;;;;;;8336920;28;20040;-59
2021/01/09 02:28:23;;;;;;;4.27;2.40;;;19.90;27.90;;;;;;8347472;28;20407;-58
2021/01/09 02:32:38;;;;;;;3.27;2.27;;;19.90;27.90;;;;;;8327645;28;20056;-59
2021/01/09 02:36:40;;;;;;;3.72;2.10;;;19.90;27.90;;;;;;8327529;28;20038;-59
2021/01/09 02:40:41;;;;;;;;;;;19.90;27.90;;;;;;8327835;28;20045;-59
2021/01/09 02:44:41;;;;;;;2.93;2.20;;;19.90;27.90;;;;;;8325921;28;20331;-60
2021/01/09 02:48:42;;;;;;;3.90;2.40;;;19.90;27.90;;;;;;8331526;28;20034;-59
2021/01/09 02:52:42;;;;;;;3.50;2.30;;;19.90;27.90;;;;;;8327303;28;20036;-59
2021/01/09 02:56:43;;;;;;;2.40;2.20;;;19.90;27.90;;;;;;8325448;28;20418;-59
2021/01/09 03:00:43;;;;;;;3.53;2.23;;;19.90;27.90;;;;;;8326248;28;20049;-60
2021/01/09 03:04:44;;;;;;;3.10;2.23;;;19.80;27.90;;;;;;8330858;28;20042;-59
2021/01/09 03:08:44;;;;;;;2.87;2.40;;;19.80;27.80;;;;;;8325099;28;20129;-59
2021/01/09 03:12:45;;;;;;;4.13;2.70;;;19.80;27.80;;;;;;8326110;28;20041;-59
2021/01/09 03:16:45;;;;;;;3.00;2.50;;;19.80;27.90;;;;;;8326377;28;20044;-59
2021/01/09 03:20:46;;;;;;;3.43;2.57;;;19.80;27.90;;;;;;8324547;28;22959;-60
2021/01/09 03:24:46;;;;;;;3.87;2.43;;;19.80;27.90;;;;;;8330360;28;20461;-59
2021/01/09 03:28:47;;;;;;;2.67;2.20;;;19.80;27.90;;;;;;8325625;28;20029;-59
2021/01/09 03:32:47;;;;;;;2.47;2.20;;;19.80;28.30;;;;;;8324308;28;20056;-59
2021/01/09 03:36:48;;;;;;;3.63;2.30;;;19.80;27.90;;;;;;8325448;28;20034;-60
2021/01/09 03:40:49;;;;;;;4.13;2.63;;;19.70;27.80;;;;;;8330147;28;20065;-59
2021/01/09 03:44:49;;;;;;;3.60;2.33;;;19.70;27.80;;;;;;8327699;28;20037;-59
2021/01/09 03:48:49;;;;;;;4.53;2.50;;;19.70;27.80;;;;;;8346107;28;20037;-59
2021/01/09 03:52:50;;;;;;;3.83;2.23;;;19.70;27.80;;;;;;8325169;28;20486;-60
2021/01/09 03:56:50;;;;;;;3.20;2.23;;;19.70;27.80;;;;;;8325334;28;20041;-59
2021/01/09 04:00:51;;;;;;;2.27;2.07;;;19.70;27.80;;;;;;8327397;28;20046;-59
2021/01/09 04:04:52;;;;;;;2.37;1.87;;;19.70;27.80;;;;;;8324790;28;20044;-59
2021/01/09 04:08:52;;;;;;;3.30;2.30;;;19.70;27.80;;;;;;8323545;28;20478;-59
2021/01/09 04:12:53;;;;;;;3.33;2.77;;;19.60;27.80;;;;;;8337711;28;20097;-60
2021/01/09 04:16:53;;;;;;;3.20;2.40;;;19.70;27.80;;;;;;8362040;28;20041;-59
2021/01/09 04:20:54;;;;;;;2.73;2.40;;;19.70;27.80;;;;;;8356115;28;20505;-60
2021/01/09 04:24:54;;;;;;;2.97;2.30;;;19.70;27.70;;;;;;8346505;28;20087;-59
2021/01/09 04:28:55;;;;;;;2.63;2.27;;;19.80;27.70;;;;;;8356699;28;20033;-59
2021/01/09 04:32:55;;;;;;;2.73;2.53;;;19.80;27.50;;;;;;8371240;28;20029;-60
2021/01/09 04:36:56;;;;;;;2.57;2.03;;;19.90;27.50;;;;;;8368268;28;20509;-59
2021/01/09 04:41:00;;;;;;;3.17;2.00;;;19.80;27.50;;;;;;8367982;28;20501;-60
2021/01/09 04:45:01;;;;;;;3.08;2.20;;;19.90;27.50;;;;;;8360930;28;20087;-59
2021/01/09 04:49:02;;;;;;;2.63;2.08;;;19.90;27.40;;;;;;8349336;28;20112;-59
2021/01/09 04:53:03;;;;;;;3.70;2.30;;;20.00;27.40;;;;;;8372544;28;20529;-59
2021/01/09 04:57:04;;;;;;;;;;;20.00;27.30;;;;;;8366987;28;20135;-60
2021/01/09 05:01:05;;;;;;;2.20;2.00;;;20.10;27.30;;;;;;8353716;28;20264;-60
2021/01/09 05:05:06;;;;;;;3.17;2.03;;;20.10;27.30;;;;;;8357401;28;20035;-60
2021/01/09 05:09:08;;;;;;;5.38;2.38;;;20.10;27.30;;;;;;8364313;28;20049;-60
2021/01/09 05:13:09;;;;;;;2.40;2.15;;;20.10;27.30;;;;;;8335035;28;20029;-59
2021/01/09 05:17:11;;;;;;;3.10;2.10;;;20.10;27.70;;;;;;8358281;28;20123;-59
2021/01/09 05:21:13;;;;;;;4.05;2.15;;;20.10;27.20;;;;;;8333863;28;20050;-59
2021/01/09 05:25:15;;;;;;;3.47;2.25;;;20.10;27.20;;;;;;8353660;28;20481;-59
2021/01/09 05:29:17;;;;;;;3.05;2.33;;;20.10;27.20;;;;;;8345768;28;20124;-59
2021/01/09 05:33:21;;;;;;;3.70;2.05;;;20.20;27.20;;;;;;8332691;28;20442;-60
2021/01/09 05:37:24;;;;;;;3.05;2.25;;;20.20;27.10;;;;;;8330894;28;20120;-59
2021/01/09 05:41:26;;;;;;;3.38;2.25;;;20.20;27.10;;;;;;8327452;28;20084;-59
2021/01/09 05:45:26;;;;;;;2.33;2.13;;;20.20;27.10;;;;;;8333213;28;20080;-60
2021/01/09 05:49:28;;;;;;;2.63;2.30;;;20.20;27.10;;;;;;8328683;28;20041;-59
2021/01/09 05:53:55;;;;;;;2.70;2.13;;;20.20;27.10;;;;;;8327657;28;20091;-60
2021/01/09 05:57:56;;;;;;;2.67;2.47;;;20.30;27.10;;;;;;8341326;28;20119;-60
2021/01/09 06:01:58;;;;;;;3.33;2.63;;;20.30;27.10;;;;;;8339635;28;20103;-59
2021/01/09 06:06:00;;;;;;;2.42;2.00;;;20.30;27.00;;;;;;8331685;28;20072;-59
2021/01/09 06:10:07;;;;;;;3.13;2.28;;;20.30;27.00;;;;;;8328235;28;20053;-59
2021/01/09 06:14:09;;;;;;;3.00;2.30;;;20.30;27.10;;;;;;8328148;28;20494;-60
2021/01/09 06:18:10;;;;;;;4.15;2.00;;;20.30;27.00;;;;;;8326386;28;20046;-60
2021/01/09 06:22:11;;;;;;;2.75;2.25;;;20.30;27.10;;;;;;8332640;28;20496;-60
2021/01/09 06:26:14;;;;;;;3.20;2.00;;;20.30;27.00;;;;;;8327696;28;20041;-60
2021/01/09 06:30:18;;;;;;;3.00;2.10;;;20.40;27.00;;;;;;8357914;28;20793;-60
2021/01/09 06:34:22;;;;;;;3.20;2.28;;;20.30;27.00;;;;;;8344740;28;20037;-60
2021/01/09 06:38:23;;;;;;;2.88;2.13;;;20.30;27.00;;;;;;8350560;28;20041;-59
2021/01/09 06:42:24;;;;;;;3.10;2.10;;;20.40;27.00;;;;;;8356207;28;20086;-60
2021/01/09 06:46:38;;;;;;;3.17;2.40;;;20.40;26.90;;;;;;8327089;28;20073;-60
2021/01/09 06:50:38;;;;;;;3.30;2.30;;;20.40;26.90;;;;;;8325150;28;20406;-60
2021/01/09 06:54:39;;;;;;;3.27;2.27;;;20.40;26.90;;;;;;8327085;28;20058;-61
2021/01/09 06:58:50;;;;;;;4.47;2.53;;;20.40;26.90;;;;;;8331205;28;20087;-60
2021/01/09 07:03:12;;;;;;;2.80;2.28;;;20.40;26.90;;;;;;8355006;28;20111;-60
2021/01/09 07:07:27;;;;;;;2.55;1.98;;;20.40;26.90;;;;;;8343740;28;20100;-60
2021/01/09 07:11:27;;;;;;;3.50;2.42;;;20.40;26.90;;;;;;8350283;28;20037;-60
2021/01/09 07:15:31;;;;;;;2.97;2.10;;;20.40;26.90;;;;;;8359446;28;20036;-59
2021/01/09 07:19:34;;;;;;;2.88;2.30;;;20.40;26.90;;;;;;8363003;28;20049;-60
2021/01/09 07:23:35;;;;;;;2.95;2.20;;;20.40;26.80;;;;;;8357101;28;20041;-60
2021/01/09 07:27:42;;;;;;;2.90;1.98;;;20.40;26.90;;;;;;8348515;28;20395;-60
2021/01/09 07:31:47;;;;;;;3.05;2.30;;;20.40;26.90;;;;;;8344669;28;20037;-60
2021/01/09 07:35:48;;;;;;;3.25;2.45;;;20.40;26.90;;;;;;8328578;28;20037;-60
2021/01/09 07:39:54;;;;;;;2.90;2.33;;;20.40;26.80;;;;;;8329873;28;20543;-60
2021/01/09 07:44:10;;;;;;;2.80;2.35;;;20.40;26.80;;;;;;8325399;28;20435;-60
2021/01/09 07:48:19;;;;;;;3.78;2.38;;;20.40;26.90;;;;;;8323980;28;20029;-60
2021/01/09 07:52:24;;;;;;;3.25;2.08;;;20.40;26.80;;;;;;8341713;28;20216;-60
2021/01/09 07:56:37;;;;;;;3.13;2.40;;;20.40;26.80;;;;;;8356025;28;20047;-60
2021/01/09 08:00:40;;;;;;;3.60;2.15;;;20.40;26.80;;;;;;8328474;28;20124;-60
2021/01/09 08:04:41;;;;;;;2.28;2.00;;;20.40;26.70;;;;;;8324708;28;20401;-60
2021/01/09 08:08:41;;;;;;;4.27;2.57;;;20.40;26.70;;;;;;8323301;28;20052;-60
2021/01/09 08:12:42;;;;;;;3.70;2.43;;;20.50;26.80;;;;;;8335848;28;20078;-59
2021/01/09 08:16:43;;;;;;;2.53;2.10;;;20.40;26.70;;;;;;8362154;28;20182;-60
2021/01/09 08:20:48;;;;;;;3.33;2.30;;;20.50;26.80;;;;;;8328218;28;20269;-60
2021/01/09 08:24:49;;;;;;;2.85;2.40;;;20.40;26.70;;;;;;8324147;28;20037;-59
2021/01/09 08:28:52;;;;;;;2.93;2.17;;;20.50;26.70;;;;;;8324553;28;20495;-60
2021/01/09 08:33:06;;;;;;;2.92;2.33;;;20.50;26.70;;;;;;8326925;28;20029;-61
2021/01/09 08:37:07;;;;;;;2.80;2.50;;;20.50;26.70;;;;;;8361729;28;20171;-60
2021/01/09 08:41:08;;;;;;;2.47;2.20;;;20.50;26.70;;;;;;8356959;28;20103;-60
2021/01/09 08:45:09;;;;;;;4.47;2.63;;;20.50;26.70;;;;;;8324554;28;20491;-60
2021/01/09 08:49:26;;;;;;;;;;;20.50;26.60;;;;;;8324223;28;20536;-60
2021/01/09 08:53:29;;;;;;;3.05;2.22;;;20.50;26.60;;;;;;8321832;28;19959;-60
2021/01/09 08:57:30;;;;;;;3.45;2.30;;;20.50;26.70;;;;;;8328182;28;20392;-60
2021/01/09 09:01:40;;;;;;;2.92;2.22;;;20.50;26.60;;;;;;8323584;28;20079;-61
2021/01/09 09:05:42;;;;;;;3.22;2.67;;;20.60;26.70;;;;;;8322022;28;20048;-60
2021/01/09 09:09:42;;;;;;;3.33;2.63;;;20.60;26.60;;;;;;8324286;28;20037;-60
2021/01/09 09:13:43;;;;;;;3.67;2.60;;;20.60;26.60;;;;;;8332981;28;20057;-60
2021/01/09 09:17:49;;;;;;;2.67;2.40;;;20.60;26.60;;;;;;8328444;28;20022;-60
2021/01/09 09:21:57;;;;;;;4.22;2.53;;;20.60;26.60;;;;;;8330598;28;20053;-61
2021/01/09 09:26:11;;;;;;;2.88;2.50;;;20.60;26.60;;;;;;8329633;28;20482;-60
2021/01/09 09:30:20;;;;;;;3.85;2.67;;;20.60;26.60;;;;;;8327748;28;20079;-60
2021/01/09 09:34:27;;;;;;;3.25;2.53;;;20.60;26.60;;;;;;8333699;28;20490;-60
2021/01/09 09:38:27;;;;;;;3.38;2.40;;;20.70;26.60;;;;;;8353420;28;20110;-60
2021/01/09 09:42:28;;;;;;;3.83;2.67;;;20.60;26.50;;;;;;8361866;28;20025;-60
2021/01/09 09:46:40;;;;;;;4.30;2.90;;;20.60;26.60;;;;;;8361634;28;20033;-60
2021/01/09 09:50:40;;;;;;;4.32;3.03;;;20.60;26.50;;;;;;8360531;28;20128;-60
2021/01/09 09:54:41;;;;;;;3.27;2.40;;;20.60;26.60;;;;;;8366007;28;20036;-61
2021/01/09 09:58:42;;;;;;;5.87;3.63;;;20.70;26.60;;;;;;8342429;28;20060;-59
2021/01/09 10:02:54;;;;;;;4.60;3.33;;;20.70;26.60;;;;;;8327096;28;20045;-60
2021/01/09 10:06:55;;;;;;;5.22;3.05;;;20.70;26.60;;;;;;8328796;28;20121;-61
2021/01/09 10:10:55;;;;;;;3.33;2.88;;;20.70;26.60;;;;;;8332461;28;20056;-61
2021/01/09 10:14:56;;;;;;;4.53;2.80;;;20.70;26.60;;;;;;8326467;28;20119;-61
2021/01/09 10:18:56;;;;;;;4.90;2.87;;;20.70;26.60;;;;;;8341080;28;20524;-61
2021/01/09 10:22:57;;;;;;;3.07;2.70;;;20.70;26.60;;;;;;8360100;28;20030;-61
2021/01/09 10:27:01;;;;;;;4.37;3.07;;;20.70;26.60;;;;;;8355234;28;20037;-61
2021/01/09 10:31:01;;;;;;;3.35;2.70;;;20.80;27.10;;;;;;8332480;28;20029;-61
2021/01/09 10:35:03;;;;;;;5.00;2.63;;;20.80;26.60;;;;;;8327495;28;20048;-61
2021/01/09 10:39:04;;;;;;;;;;;20.80;26.60;;;;;;8326391;28;20132;-61
2021/01/09 10:43:04;;;;;;;6.05;3.35;;;20.80;26.70;;;;;;8327369;28;19916;-60
2021/01/09 10:47:05;;;;;;;4.93;3.20;;;20.80;26.70;;;;;;8331577;28;20517;-61
2021/01/09 10:51:05;;;;;;;3.80;2.97;;;20.80;26.60;;;;;;8326004;28;20034;-61
2021/01/09 10:55:06;;;;;;;4.83;3.00;;;20.90;26.60;;;;;;8326892;28;20091;-61
2021/01/09 10:59:07;;;;;;;5.03;2.85;;;20.80;26.60;;;;;;8326590;28;20410;-61
2021/01/09 11:03:07;;;;;;;4.13;2.80;;;20.90;26.60;;;;;;8329881;28;20067;-60
2021/01/09 11:07:08;;;;;;;3.90;3.00;;;20.90;26.70;;;;;;8326392;28;20045;-61
2021/01/09 11:11:08;;;;;;;5.43;2.83;;;20.90;26.70;;;;;;8326572;28;20041;-60
2021/01/09 11:15:09;;;;;;;4.63;3.17;;;20.90;26.70;;;;;;8325015;28;20425;-60
2021/01/09 11:19:10;;;;;;;3.88;3.03;;;20.90;26.60;;;;;;8326367;28;20041;-60
2021/01/09 11:23:11;;;;;;;4.78;3.17;;;20.90;26.70;;;;;;8330292;28;20517;-61
2021/01/09 11:27:12;;;;;;;3.80;2.83;;;20.90;26.70;;;;;;8325185;28;20038;-61
2021/01/09 11:31:13;;;;;;;5.13;3.30;;;20.90;26.70;;;;;;8325909;28;20124;-61
2021/01/09 11:35:13;;;;;;;3.13;2.73;;;20.90;26.70;;;;;;8324633;28;20044;-61
2021/01/09 11:39:14;;;;;;;4.50;2.93;;;21.00;26.70;;;;;;8328749;28;20041;-61
2021/01/09 11:43:14;;;;;;;3.87;2.97;;;21.00;26.70;;;;;;8325226;28;20417;-61
2021/01/09 11:47:15;;;;;;;4.73;3.07;;;21.00;26.70;;;;;;8325102;28;20041;-61
2021/01/09 11:51:22;;;;;;;5.37;2.80;;;21.00;26.70;;;;;;8323633;28;20475;-61
2021/01/09 11:55:23;;;;;;;3.88;2.92;;;21.00;26.70;;;;;;8326093;28;20152;-61
2021/01/09 11:59:23;;;;;;;3.33;2.87;;;21.00;26.70;;;;;;8327383;28;20112;-59
2021/01/09 12:03:24;;;;;;;4.13;3.03;;;21.00;26.70;;;;;;8324996;28;20047;-62
2021/01/09 12:07:24;;;;;;;3.47;2.77;;;21.10;26.70;;;;;;8324730;28;20540;-62
2021/01/09 12:11:25;;;;;;;3.90;2.77;;;21.10;26.70;;;;;;8323326;28;20068;-61
2021/01/09 12:15:25;;;;;;;2.87;2.57;;;21.10;26.80;;;;;;8328915;28;20375;-62
2021/01/09 12:19:27;;;;;;;4.00;2.97;;;21.00;26.70;;;;;;8324576;28;20045;-62
2021/01/09 12:23:27;;;;;;;3.10;2.58;;;21.10;26.70;;;;;;8323028;28;20033;-62
2021/01/09 12:27:28;;;;;;;3.53;2.70;;;21.10;26.70;;;;;;8333538;28;20115;-61
2021/01/09 12:31:35;;;;;;;3.27;2.43;;;21.10;26.70;;;;;;8361646;28;20437;-59
2021/01/09 12:35:36;;;;;;;4.07;2.80;;;21.10;26.70;;;;;;8329064;28;20030;-60
2021/01/09 12:39:37;;;;;;;3.43;2.30;;;21.10;26.70;;;;;;8324156;28;20064;-59
2021/01/09 12:43:39;;;;;;;4.03;2.30;;;21.20;26.70;;;;;;8324015;28;20045;-60
2021/01/09 12:47:44;;;;;;;4.00;2.78;;;21.20;26.80;;;;;;8326283;28;20091;-60
2021/01/09 12:51:48;;;;;;;2.90;2.30;;;21.20;26.80;;;;;;8335044;28;20482;-60
2021/01/09 12:55:49;;;;;;;3.20;2.58;;;21.20;26.80;;;;;;8330784;28;20033;-60
2021/01/09 12:59:50;;;;;;;3.83;2.40;;;21.20;26.70;;;;;;8328750;28;20049;-60
2021/01/09 13:03:50;;;;;;;4.03;2.80;;;21.30;26.80;;;;;;8330471;28;20055;-60
2021/01/09 13:07:51;;;;;;;4.17;2.53;;;21.30;27.20;;;;;;8334519;28;20333;-60
2021/01/09 13:11:53;;;;;;;2.73;2.07;;;21.30;26.80;;;;;;8328407;28;20103;-60
2021/01/09 13:15:54;;;;;;;3.45;2.35;;;21.20;26.70;;;;;;8341923;28;20163;-60
2021/01/09 13:19:55;;;;;;;3.20;2.60;;;21.20;26.80;;;;;;8362707;28;20379;-60
2021/01/09 13:23:56;;;;;;;5.20;2.47;;;21.30;26.80;;;;;;8356775;28;20120;-60
2021/01/09 13:27:56;;;;;;;3.13;2.53;;;21.30;26.80;;;;;;8334037;28;20026;-60
2021/01/09 13:31:57;;;;;;;5.83;2.70;;;21.30;26.80;;;;;;8329786;28;20030;-61
2021/01/09 13:35:57;;;;;;;2.85;2.40;;;21.30;26.70;;;;;;8327850;28;20061;-60
2021/01/09 13:39:58;;;;;;;3.93;2.50;;;21.30;26.70;;;;;;8329803;28;20499;-60
2021/01/09 13:43:59;;;;;;;3.20;2.40;;;21.30;26.70;;;;;;8333984;28;20037;-61
2021/01/09 13:47:59;;;;;;;3.00;2.23;;;21.30;26.70;;;;;;8328121;28;20064;-61
2021/01/09 13:52:00;;;;;;;4.07;2.63;;;21.30;26.70;;;;;;8329048;28;20045;-61
2021/01/09 13:56:00;;;;;;;3.27;2.60;;;21.40;26.70;;;;;;8329035;28;20045;-60
2021/01/09 14:00:01;;;;;;;2.90;2.30;;;21.40;26.70;;;;;;8330408;28;20086;-61
2021/01/09 14:04:02;;;;;;;2.43;2.23;;;21.40;26.70;;;;;;8328892;28;20037;-61
2021/01/09 14:08:03;;;;;;;;;;;21.40;26.70;;;;;;8328673;28;20121;-61
2021/01/09 14:12:05;;;;;;;3.27;2.40;;;21.40;26.70;;;;;;8326379;28;20382;-61
2021/01/09 14:16:07;;;;;;;3.58;2.40;;;21.40;26.70;;;;;;8328635;28;20049;-61
2021/01/09 14:20:07;;;;;;;3.65;2.45;;;21.40;26.70;;;;;;8332504;28;20042;-60
2021/01/09 14:24:08;;;;;;;3.22;2.30;;;21.40;27.20;;;;;;8326638;28;20072;-60
2021/01/09 14:28:09;;;;;;;3.17;2.40;;;21.40;26.60;;;;;;8327855;28;20037;-59
2021/01/09 14:32:09;;;;;;;4.30;2.20;;;21.40;26.60;;;;;;8327892;28;20447;-60
2021/01/09 14:36:19;;;;;;;3.27;2.47;;;21.40;26.60;;;;;;8330689;28;20482;-61
2021/01/09 14:40:19;;;;;;;2.80;2.30;;;21.50;26.70;;;;;;8327507;28;20052;-61
2021/01/09 14:44:21;;;;;;;3.17;2.13;;;21.50;26.60;;;;;;8327351;28;20494;-60
2021/01/09 14:48:22;;;;;;;2.63;2.35;;;21.50;26.60;;;;;;8325873;28;20043;-61
2021/01/09 14:52:22;;;;;;;3.27;2.17;;;21.50;26.60;;;;;;8327171;28;20037;-61
2021/01/09 14:56:23;;;;;;;2.53;2.33;;;21.50;26.60;;;;;;8330269;28;20091;-55
2021/01/09 15:00:23;;;;;;;5.30;2.50;;;21.50;26.60;;;;;;8326208;28;20064;-60
2021/01/09 15:04:24;;;;;;;2.77;2.20;;;21.50;26.60;;;;;;8327457;28;20092;-61
2021/01/09 15:08:24;;;;;;;3.07;2.23;;;21.50;26.60;;;;;;8325107;28;20036;-60
2021/01/09 15:12:25;;;;;;;3.43;2.40;;;21.50;26.60;;;;;;8330642;28;20041;-60
2021/01/09 15:16:26;;;;;;;2.63;2.33;;;21.50;26.60;;;;;;8326281;28;20077;-60
2021/01/09 15:20:26;;;;;;;2.77;2.17;;;21.50;26.60;;;;;;8324834;28;20049;-60
2021/01/09 15:24:27;;;;;;;3.10;2.30;;;21.50;26.60;;;;;;8326278;28;20586;-60
2021/01/09 15:28:27;;;;;;;3.22;2.28;;;21.50;26.60;;;;;;8347564;28;20044;-60
2021/01/09 15:32:28;;;;;;;2.43;2.20;;;21.50;26.60;;;;;;8331671;28;20398;-60
2021/01/09 15:36:30;;;;;;;2.23;1.90;;;21.50;26.60;;;;;;8358096;28;20111;-55
2021/01/09 15:40:31;;;;;;;3.22;2.17;;;21.50;26.60;;;;;;8327283;28;20430;-58
2021/01/09 15:44:31;;;;;;;3.77;2.63;;;21.30;26.80;;;;;;8340921;28;20061;-58
2021/01/09 15:48:32;;;;;;;2.90;2.13;;;21.20;26.90;;;;;;8329459;28;20092;-61
2021/01/09 15:52:32;;;;;;;4.10;2.50;;;21.30;27.10;;;;;;8324639;28;20111;-59
2021/01/09 15:56:37;;;;;;;2.90;2.27;;;21.40;27.40;;;;;;8345997;28;20071;-59
2021/01/09 16:00:38;;;;;;;2.58;2.28;;;21.50;27.50;;;;;;8315383;28;20052;-59
2021/01/09 16:04:38;;;;;;;3.37;2.57;;;21.50;27.40;;;;;;8312079;28;20042;-60
2021/01/09 16:08:40;;;;;;;3.43;2.77;;;21.50;27.50;;;;;;8315765;28;20029;-60
2021/01/09 16:12:41;;;;;;;4.30;2.40;;;21.50;27.60;;;;;;8319342;28;20107;-59
2021/01/09 16:16:41;;;;;;;5.97;2.57;;;21.60;27.60;;;;;;8317662;28;20038;-59
2021/01/09 16:20:43;;;;;;;4.03;2.53;;;21.60;27.60;;;;;;8294355;28;20529;-58
2021/01/09 16:24:44;;;;;;;3.92;2.42;;;21.60;27.60;;;;;;8314136;28;20030;-58
2021/01/09 16:28:45;;;;;;;3.17;2.37;;;21.60;27.60;;;;;;8343378;28;20115;-59
2021/01/09 16:32:46;;;;;;;;;;;21.60;27.50;;;;;;8345452;28;20044;-59
2021/01/09 16:36:47;;;;;;;4.10;2.60;;;21.60;27.50;;;;;;8330084;28;19952;-59
2021/01/09 16:40:49;;;;;;;4.53;2.85;;;21.60;27.40;;;;;;8336068;28;20599;-59
2021/01/09 16:44:50;;;;;;;5.05;2.38;;;21.70;27.40;;;;;;8316507;28;20053;-59
2021/01/09 16:48:50;;;;;;;3.23;2.53;;;21.70;27.40;;;;;;8318577;28;20135;-58
2021/01/09 16:52:51;;;;;;;3.00;2.00;;;21.70;27.40;;;;;;8338657;28;20132;-58
2021/01/09 16:56:52;;;;;;;3.80;2.90;;;21.70;27.40;;;;;;8343391;28;20041;-58
2021/01/09 17:00:52;;;;;;;2.80;2.50;;;21.80;27.30;;;;;;8317312;28;20056;-60
2021/01/09 17:04:53;;;;;;;3.43;2.77;;;21.80;27.30;;;;;;8318082;28;20044;-60
2021/01/09 17:08:53;;;;;;;3.60;2.50;;;21.80;27.30;;;;;;8315025;28;20393;-58
2021/01/09 17:12:54;;;;;;;3.60;2.73;;;21.80;27.30;;;;;;8312646;28;20080;-60
2021/01/09 17:16:54;;;;;;;3.33;2.40;;;21.80;27.60;;;;;;8322425;28;20506;-59
2021/01/09 17:21:00;;;;;;;3.03;2.63;;;21.80;27.30;;;;;;8320275;28;20060;-60
2021/01/09 17:25:02;;;;;;;2.72;2.10;;;21.90;27.40;;;;;;8337296;28;20042;-60
2021/01/09 17:29:04;;;;;;;3.17;2.50;;;21.90;27.30;;;;;;8339903;28;20045;-60
2021/01/09 17:33:04;;;;;;;3.55;2.60;;;21.90;27.30;;;;;;8325170;28;20044;-60
2021/01/09 17:37:07;;;;;;;5.10;2.37;;;21.90;27.20;;;;;;8323374;28;20053;-60
2021/01/09 17:41:11;;;;;;;3.60;2.83;;;21.90;27.20;;;;;;8346312;28;20079;-60
2021/01/09 17:45:15;;;;;;;3.58;2.60;;;21.90;27.10;;;;;;8353006;28;20052;-60
2021/01/09 17:49:17;;;;;;;2.90;2.60;;;21.90;27.20;;;;;;8352928;28;20087;-59
2021/01/09 17:53:17;;;;;;;3.83;2.83;;;21.90;27.20;;;;;;8334493;28;20038;-56
2021/01/09 17:57:18;;;;;;;2.47;2.23;;;22.00;27.20;;;;;;8312206;28;20517;-59
2021/01/09 18:01:18;;;;;;;3.23;2.50;;;22.00;27.30;;;;;;8322843;28;20065;-57
2021/01/09 18:05:19;;;;;;;3.63;2.50;;;22.00;27.30;;;;;;8306846;28;20086;-56
2021/01/09 18:09:19;;;;;;;3.50;2.20;;;22.00;27.20;;;;;;8350317;28;20048;-56
2021/01/09 18:13:20;;;;;;;3.63;2.73;;;22.00;27.20;;;;;;8338219;28;20063;-57
2021/01/09 18:17:20;;;;;;;3.57;2.60;;;22.00;27.60;;;;;;8329310;28;20068;-58
2021/01/09 18:21:29;;;;;;;4.27;2.53;;;22.00;27.20;;;;;;8351353;28;20118;-57
2021/01/09 18:25:29;;;;;;;2.72;2.50;;;22.00;27.10;;;;;;8336097;28;20035;-57
2021/01/09 18:29:30;;;;;;;4.37;2.30;;;22.00;27.20;;;;;;8321689;28;20490;-58
2021/01/09 18:33:30;;;;;;;3.50;2.73;;;22.00;27.60;;;;;;8314882;28;20033;-57
2021/01/09 18:37:33;;;;;;;3.20;2.40;;;22.00;27.20;;;;;;8289498;28;20471;-57
2021/01/09 18:41:35;;;;;;;3.72;2.42;;;22.00;27.30;;;;;;8320511;28;20041;-58
2021/01/09 18:45:35;;;;;;;5.82;3.15;;;22.00;27.40;;;;;;8325012;28;20088;-58
2021/01/09 18:49:38;;;;;;;4.87;3.40;;;22.10;27.40;;;;;;8338974;28;20053;-58
2021/01/09 18:53:48;;;;;;;5.93;3.83;;;22.00;27.40;;;;;;8331394;28;20033;-58
2021/01/09 18:57:48;;;;;;;6.32;3.00;;;21.90;27.40;;;;;;8326742;28;20494;-58
2021/01/09 19:01:49;;;;;;;5.83;3.47;;;21.90;27.20;;;;;;8327817;28;20049;-58
2021/01/09 19:05:50;;;;;;;9.00;3.90;;;21.90;27.10;;;;;;8328133;28;20139;-57
2021/01/09 19:09:50;;;;;;;5.53;3.87;;;21.90;27.10;;;;;;8326387;28;20046;-57
2021/01/09 19:13:52;;;;;;;4.20;3.22;;;21.90;26.90;;;;;;8346652;28;20045;-58
2021/01/09 19:17:53;;;;;;;6.05;3.72;;;21.90;26.90;;;;;;8328771;28;20037;-58
2021/01/09 19:21:54;;;;;;;4.15;3.35;;;21.90;26.80;;;;;;8330614;28;20117;-58
2021/01/09 19:25:55;;;;;;;4.72;3.17;;;21.90;26.80;;;;;;8326012;28;20037;-58
2021/01/09 19:29:56;;;;;;;5.28;3.20;;;21.80;26.80;;;;;;8324010;28;20114;-57
2021/01/09 19:33:57;;;;;;;5.35;3.28;;;21.80;26.80;;;;;;8338565;28;20033;-58
2021/01/09 19:37:58;;;;;;;5.43;3.45;;;21.80;26.80;;;;;;8341757;28;20034;-58
2021/01/09 19:42:02;;;;;;;3.90;2.80;;;21.80;26.70;;;;;;8323614;28;20053;-57
2021/01/09 19:46:03;;;;;;;3.15;2.83;;;21.80;26.70;;;;;;8325383;28;20040;-57
2021/01/09 19:50:05;;;;;;;4.97;3.55;;;21.80;26.70;;;;;;8347289;28;20033;-57
2021/01/09 19:54:07;;;;;;;4.25;3.10;;;21.80;26.70;;;;;;8325855;28;20076;-57
2021/01/09 19:58:07;;;;;;;;;;;21.80;26.70;;;;;;8329178;28;20132;-58
2021/01/09 20:02:10;;;;;;;4.60;3.30;;;21.80;26.60;;;;;;8325325;28;20285;-58
2021/01/09 20:06:13;;;;;;;4.43;3.05;;;21.80;26.70;;;;;;8329609;28;20390;-57
2021/01/09 20:10:14;;;;;;;4.65;3.17;;;21.80;26.60;;;;;;8357588;28;20095;-57
2021/01/09 20:14:18;;;;;;;6.25;3.60;;;21.80;26.60;;;;;;8362025;28;20033;-58
2021/01/09 20:18:18;;;;;;;4.55;3.17;;;21.80;26.60;;;;;;8355792;28;20041;-58
2021/01/09 20:22:19;;;;;;;5.03;3.50;;;21.80;26.60;;;;;;8357371;28;20037;-57
2021/01/09 20:26:20;;;;;;;4.43;3.20;;;21.80;26.60;;;;;;8333473;28;20360;-57
2021/01/09 20:30:21;;;;;;;4.05;3.38;;;21.80;26.50;;;;;;8322504;28;20478;-57
2021/01/09 20:34:23;;;;;;;3.83;2.80;;;21.80;26.60;;;;;;8329117;28;20034;-57
2021/01/09 20:38:26;;;;;;;3.97;2.90;;;21.80;26.60;;;;;;8322350;28;20037;-56
2021/01/09 20:42:28;;;;;;;4.85;3.75;;;21.80;26.60;;;;;;8324159;28;20414;-58
2021/01/09 20:46:30;;;;;;;5.05;3.22;;;21.80;26.50;;;;;;8324015;28;20061;-58
2021/01/09 20:50:33;;;;;;;4.40;2.85;;;21.80;26.50;;;;;;8327854;28;20112;-57
2021/01/09 20:54:34;;;;;;;5.80;3.33;;;21.80;26.50;;;;;;8356754;28;20041;-58
2021/01/09 20:58:35;;;;;;;5.23;3.00;;;21.80;26.50;;;;;;8357033;28;20175;-57
2021/01/09 21:02:36;;;;;;;5.68;3.22;;;21.80;26.50;;;;;;8328873;28;20292;-58